Погода Дерновона неделю

Смоленская область, Россия

24 - 30 июля
  • 24июля
    Сегодня
    +13°
    +25°
    Практически безоблачно
    ВремяПогодаТемператураВлажностьДавлениеВетер, м/сВероятность осадков
    00:00Облачно с прояснениями+16°C76 %741 мм2.6 м/с2 %
    03:00Небольшая облачность+14°C76 %741 мм1.9 м/с2 %
    06:00Небольшая облачность+14°C79 %741 мм2.0 м/с2 %
    09:00Ясно и безоблачно+19°C63 %741 мм1.5 м/с2 %
    12:00Практически безоблачно+22°C47 %741 мм1.8 м/с2 %
    15:00Практически безоблачно+24°C41 %740 мм2.0 м/с2 %
    18:00Практически безоблачно+24°C40 %739 мм0.9 м/с2 %
    21:00Ясно и безоблачно+19°C64 %739 мм2.3 м/с2 %
  • 25июля
    Четверг
    +13°
    +26°
    Практически безоблачно
    ВремяПогодаТемператураВлажностьДавлениеВетер, м/сВероятность осадков
    00:00Ясно и безоблачно+15°C74 %739 мм1.8 м/с2 %
    03:00Ясно и безоблачно+14°C78 %739 мм0.6 м/с2 %
    06:00Ясно и безоблачно+14°C82 %738 мм2.0 м/с2 %
    09:00Практически безоблачно+21°C58 %739 мм1.5 м/с2 %
    12:00Ясно и безоблачно+24°C44 %738 мм0.8 м/с2 %
    15:00Практически безоблачно+25°C44 %738 мм1.4 м/с8 %
    18:00Облачно с прояснениями+24°C56 %738 мм2.6 м/с23 %
    21:00Небольшая облачность+19°C81 %738 мм1.6 м/с5 %
  • 26июля
    Пятница
    +13°
    +24°
    Небольшая облачность
    ВремяПогодаТемператураВлажностьДавлениеВетер, м/сВероятность осадков
    00:00Ясно и безоблачно+16°C88 %737 мм1.4 м/с2 %
    03:00Ясно и безоблачно+14°C94 %738 мм1.9 м/с2 %
    06:00Ясно и безоблачно+14°C97 %738 мм1.7 м/с2 %
    09:00Ясно и безоблачно+19°C80 %739 мм1.9 м/с3 %
    12:00Практически безоблачно+22°C62 %740 мм1.9 м/с22 %
    15:00Небольшая облачность+23°C56 %740 мм1.2 м/с28 %
    18:00Небольшая облачность+23°C54 %740 мм0.9 м/с39 %
    21:00Ясно и безоблачно+20°C76 %741 мм1.5 м/с6 %
  • 27июля
    Суббота
    +14°
    +26°
    Пасмурно, сплошная облачность
    ВремяПогодаТемператураВлажностьДавлениеВетер, м/сВероятность осадков
    00:00Практически безоблачно+16°C86 %741 мм0.9 м/с2 %
    03:00Ясно и безоблачно+14°C92 %741 мм0.5 м/с2 %
    06:00Ясно и безоблачно+15°C90 %742 мм1.4 м/с2 %
    09:00Ясно и безоблачно+21°C69 %743 мм2.0 м/с2 %
    12:00Ясно и безоблачно+24°C57 %743 мм1.9 м/с20 %
    15:00Пасмурно, сплошная облачность+26°C47 %742 мм3.0 м/с26 %
    18:00Практически безоблачно+26°C45 %742 мм3.6 м/с45 %
    21:00Небольшая облачность+21°C67 %742 мм2.2 м/с14 %
  • 28июля
    Воскресенье
    +15°
    +26°
    Облачно с прояснениями
    ВремяПогодаТемператураВлажностьДавлениеВетер, м/сВероятность осадков
    00:00Ясно и безоблачно+17°C79 %742 мм2.2 м/с5 %
    03:00Облачно с прояснениями+16°C87 %742 мм2.0 м/с2 %
    06:00Облачно с прояснениями+16°C89 %742 мм1.3 м/с2 %
    09:00Облачно с прояснениями+21°C72 %743 мм0.9 м/с4 %
    12:00Облачно с прояснениями+25°C50 %742 мм3.2 м/с25 %
    15:00Облачно с прояснениями+26°C50 %742 мм3.6 м/с23 %
    18:00Облачно с прояснениями+26°C52 %741 мм3.0 м/с24 %
    21:00Облачно с прояснениями+22°C72 %740 мм1.6 м/с27 %
Мы используем cookies
Соглашаюсь